Search for airport 
image banner adimage banner ad
image banner ad

TFFS - Les Saintes Terre De Haut

Located in Terre De Haut, Guadeloupe

ICAO - TFFS, IATA - LSS

Data provided by Airmate  

General information

Coordinates: N15°51'52" W61°34'50"
Elevation is 42 feet MSL.
Magnetic variation is -14.56° East
Rated:
View ratings: [VIEW]


View others Airports in (unassigned)

Operational data

Open for public use
Current time UTC:
Current local time:
Weather at : TFFR - Pointe A Pitre Le Raizet ( 45 km )
METAR: TFFR 181100Z AUTO 08003KT 060V120 CAVOK 28/24 Q1011
TAF: TAF TFFR 180400Z 1806/1906 12008KT 9999 SCT030 PROB30 TEMPO 1806/1811 4000 SHRA BKN015TCU
View NOTAMs / SUP AIP / TFR affecting this airport [VIEW]
Communications frequencies: [VIEW]

Runways:

RWY identifierQFULength (ft)Width (ft)SurfaceLDA (ft)
0974°190349CONC1903
27254°190349CONC1903

Airport contact information

Address: Terre De Haut Guadeloupe

Satellite view of TFFS